sensor_id;sensor_type;location;lat;lon;timestamp;temperature;humidity
19813;DHT22;10066;48.108;11.448;2023-07-30T00:00:41;19.20;99.90
19813;DHT22;10066;48.108;11.448;2023-07-30T00:03:08;19.20;99.90
19813;DHT22;10066;48.108;11.448;2023-07-30T00:05:35;19.20;99.90
19813;DHT22;10066;48.108;11.448;2023-07-30T00:08:04;19.10;99.90
19813;DHT22;10066;48.108;11.448;2023-07-30T00:10:31;19.10;99.90
19813;DHT22;10066;48.108;11.448;2023-07-30T00:12:57;19.00;99.90
19813;DHT22;10066;48.108;11.448;2023-07-30T00:15:24;18.90;99.90
19813;DHT22;10066;48.108;11.448;2023-07-30T00:17:51;18.90;99.90
19813;DHT22;10066;48.108;11.448;2023-07-30T00:20:18;18.80;99.90
19813;DHT22;10066;48.108;11.448;2023-07-30T00:22:45;18.70;99.90
19813;DHT22;10066;48.108;11.448;2023-07-30T00:25:13;18.70;99.90
19813;DHT22;10066;48.108;11.448;2023-07-30T00:27:40;18.70;99.90
19813;DHT22;10066;48.108;11.448;2023-07-30T00:30:08;18.60;99.90
19813;DHT22;10066;48.108;11.448;2023-07-30T00:32:35;18.60;99.90
19813;DHT22;10066;48.108;11.448;2023-07-30T00:35:07;18.50;99.90
19813;DHT22;10066;48.108;11.448;2023-07-30T00:37:34;18.50;99.90
19813;DHT22;10066;48.108;11.448;2023-07-30T00:40:01;18.50;99.90
19813;DHT22;10066;48.108;11.448;2023-07-30T00:42:30;18.50;99.90
19813;DHT22;10066;48.108;11.448;2023-07-30T00:44:57;18.40;99.90
19813;DHT22;10066;48.108;11.448;2023-07-30T00:47:24;18.40;99.90
19813;DHT22;10066;48.108;11.448;2023-07-30T00:49:52;18.40;99.90
19813;DHT22;10066;48.108;11.448;2023-07-30T00:52:21;18.40;99.90
19813;DHT22;10066;48.108;11.448;2023-07-30T00:54:48;18.40;99.90
19813;DHT22;10066;48.108;11.448;2023-07-30T00:57:17;18.40;99.90
19813;DHT22;10066;48.108;11.448;2023-07-30T00:59:46;18.40;99.90
19813;DHT22;10066;48.108;11.448;2023-07-30T01:02:13;18.40;99.90
19813;DHT22;10066;48.108;11.448;2023-07-30T01:04:40;18.40;99.90
19813;DHT22;10066;48.108;11.448;2023-07-30T01:07:07;18.40;99.90
19813;DHT22;10066;48.108;11.448;2023-07-30T01:09:35;18.40;99.90
19813;DHT22;10066;48.108;11.448;2023-07-30T01:12:02;18.40;99.90
19813;DHT22;10066;48.108;11.448;2023-07-30T01:14:30;18.40;99.90
19813;DHT22;10066;48.108;11.448;2023-07-30T01:16:59;18.40;99.90
19813;DHT22;10066;48.108;11.448;2023-07-30T01:19:26;18.40;99.90
19813;DHT22;10066;48.108;11.448;2023-07-30T01:21:54;18.40;99.90
19813;DHT22;10066;48.108;11.448;2023-07-30T01:24:21;18.30;99.90
19813;DHT22;10066;48.108;11.448;2023-07-30T01:26:52;18.30;99.90
19813;DHT22;10066;48.108;11.448;2023-07-30T01:29:27;18.30;99.90
19813;DHT22;10066;48.108;11.448;2023-07-30T01:31:57;18.30;99.90
19813;DHT22;10066;48.108;11.448;2023-07-30T01:34:30;18.20;99.90
19813;DHT22;10066;48.108;11.448;2023-07-30T01:37:02;18.20;99.90
19813;DHT22;10066;48.108;11.448;2023-07-30T01:39:30;18.10;99.90
19813;DHT22;10066;48.108;11.448;2023-07-30T01:41:58;18.10;99.90
19813;DHT22;10066;48.108;11.448;2023-07-30T01:44:25;18.00;99.90
19813;DHT22;10066;48.108;11.448;2023-07-30T01:46:52;18.00;99.90
19813;DHT22;10066;48.108;11.448;2023-07-30T01:49:19;17.90;99.90
19813;DHT22;10066;48.108;11.448;2023-07-30T01:51:46;17.90;99.90
19813;DHT22;10066;48.108;11.448;2023-07-30T01:54:14;18.00;99.90
19813;DHT22;10066;48.108;11.448;2023-07-30T01:56:42;17.90;99.90
19813;DHT22;10066;48.108;11.448;2023-07-30T01:59:09;17.90;99.90
19813;DHT22;10066;48.108;11.448;2023-07-30T02:01:35;18.10;99.90
19813;DHT22;10066;48.108;11.448;2023-07-30T02:04:05;17.90;99.90
19813;DHT22;10066;48.108;11.448;2023-07-30T02:06:32;18.00;99.90
19813;DHT22;10066;48.108;11.448;2023-07-30T02:08:59;17.80;99.90
19813;DHT22;10066;48.108;11.448;2023-07-30T02:11:27;17.80;99.90
19813;DHT22;10066;48.108;11.448;2023-07-30T02:13:55;17.80;99.90
19813;DHT22;10066;48.108;11.448;2023-07-30T02:16:24;17.70;99.90
19813;DHT22;10066;48.108;11.448;2023-07-30T02:18:51;17.70;99.90
19813;DHT22;10066;48.108;11.448;2023-07-30T02:21:18;17.80;99.90
19813;DHT22;10066;48.108;11.448;2023-07-30T02:23:45;17.70;99.90
19813;DHT22;10066;48.108;11.448;2023-07-30T02:26:12;17.80;99.90
19813;DHT22;10066;48.108;11.448;2023-07-30T02:28:41;17.80;99.90
19813;DHT22;10066;48.108;11.448;2023-07-30T02:31:08;17.80;99.90
19813;DHT22;10066;48.108;11.448;2023-07-30T02:33:36;18.00;99.90
19813;DHT22;10066;48.108;11.448;2023-07-30T02:36:03;17.90;99.90
19813;DHT22;10066;48.108;11.448;2023-07-30T02:38:33;18.00;99.90
19813;DHT22;10066;48.108;11.448;2023-07-30T02:41:00;18.00;99.90
19813;DHT22;10066;48.108;11.448;2023-07-30T02:43:27;18.10;99.90
19813;DHT22;10066;48.108;11.448;2023-07-30T02:45:56;18.30;99.90
19813;DHT22;10066;48.108;11.448;2023-07-30T02:48:23;18.30;99.90
19813;DHT22;10066;48.108;11.448;2023-07-30T02:50:50;18.30;99.90
19813;DHT22;10066;48.108;11.448;2023-07-30T02:53:17;18.30;99.90
19813;DHT22;10066;48.108;11.448;2023-07-30T02:55:43;18.40;99.90
19813;DHT22;10066;48.108;11.448;2023-07-30T02:58:10;18.40;99.90
19813;DHT22;10066;48.108;11.448;2023-07-30T03:00:37;18.60;99.90
19813;DHT22;10066;48.108;11.448;2023-07-30T03:03:05;18.40;99.90
19813;DHT22;10066;48.108;11.448;2023-07-30T03:05:32;18.50;99.90
19813;DHT22;10066;48.108;11.448;2023-07-30T03:07:59;18.50;99.90
19813;DHT22;10066;48.108;11.448;2023-07-30T03:10:26;18.50;99.90
19813;DHT22;10066;48.108;11.448;2023-07-30T03:12:53;18.60;99.90
19813;DHT22;10066;48.108;11.448;2023-07-30T03:15:20;18.60;99.90
19813;DHT22;10066;48.108;11.448;2023-07-30T03:17:47;18.50;99.90
19813;DHT22;10066;48.108;11.448;2023-07-30T03:20:15;18.50;99.90
19813;DHT22;10066;48.108;11.448;2023-07-30T03:22:42;18.40;99.90
19813;DHT22;10066;48.108;11.448;2023-07-30T03:25:09;18.40;99.90
19813;DHT22;10066;48.108;11.448;2023-07-30T03:27:38;18.30;99.90
19813;DHT22;10066;48.108;11.448;2023-07-30T03:30:06;18.20;99.90
19813;DHT22;10066;48.108;11.448;2023-07-30T03:32:33;18.20;99.90
19813;DHT22;10066;48.108;11.448;2023-07-30T03:34:59;18.10;99.90
19813;DHT22;10066;48.108;11.448;2023-07-30T03:37:28;18.20;99.90
19813;DHT22;10066;48.108;11.448;2023-07-30T03:39:54;18.00;99.90
19813;DHT22;10066;48.108;11.448;2023-07-30T03:42:21;18.30;99.90
19813;DHT22;10066;48.108;11.448;2023-07-30T03:44:48;18.00;99.90
19813;DHT22;10066;48.108;11.448;2023-07-30T03:47:15;17.90;99.90
19813;DHT22;10066;48.108;11.448;2023-07-30T03:49:42;17.80;99.90
19813;DHT22;10066;48.108;11.448;2023-07-30T03:52:09;17.70;99.90
19813;DHT22;10066;48.108;11.448;2023-07-30T03:54:37;17.70;99.90
19813;DHT22;10066;48.108;11.448;2023-07-30T03:57:04;17.80;99.90
19813;DHT22;10066;48.108;11.448;2023-07-30T03:59:31;17.60;99.90
19813;DHT22;10066;48.108;11.448;2023-07-30T04:01:58;17.50;99.90
19813;DHT22;10066;48.108;11.448;2023-07-30T04:04:25;17.60;99.90
19813;DHT22;10066;48.108;11.448;2023-07-30T04:06:51;17.50;99.90
19813;DHT22;10066;48.108;11.448;2023-07-30T04:09:19;17.50;99.90
19813;DHT22;10066;48.108;11.448;2023-07-30T04:11:47;17.50;99.90
19813;DHT22;10066;48.108;11.448;2023-07-30T04:14:14;17.50;99.90
19813;DHT22;10066;48.108;11.448;2023-07-30T04:16:41;17.50;99.90
19813;DHT22;10066;48.108;11.448;2023-07-30T04:19:12;17.40;99.90
19813;DHT22;10066;48.108;11.448;2023-07-30T04:21:39;17.40;99.90
19813;DHT22;10066;48.108;11.448;2023-07-30T04:26:33;17.40;99.90
19813;DHT22;10066;48.108;11.448;2023-07-30T04:29:01;17.30;99.90
19813;DHT22;10066;48.108;11.448;2023-07-30T04:31:28;17.30;99.90
19813;DHT22;10066;48.108;11.448;2023-07-30T04:33:55;17.30;99.90
19813;DHT22;10066;48.108;11.448;2023-07-30T04:36:23;17.30;99.90
19813;DHT22;10066;48.108;11.448;2023-07-30T04:38:50;17.40;99.90
19813;DHT22;10066;48.108;11.448;2023-07-30T04:41:17;17.50;99.90
19813;DHT22;10066;48.108;11.448;2023-07-30T04:43:46;17.60;99.90
19813;DHT22;10066;48.108;11.448;2023-07-30T04:46:14;17.70;99.90
19813;DHT22;10066;48.108;11.448;2023-07-30T04:48:41;17.70;99.90
19813;DHT22;10066;48.108;11.448;2023-07-30T04:51:07;17.80;99.90
19813;DHT22;10066;48.108;11.448;2023-07-30T04:53:34;17.80;99.90
19813;DHT22;10066;48.108;11.448;2023-07-30T04:56:01;17.80;99.90
19813;DHT22;10066;48.108;11.448;2023-07-30T04:58:28;17.90;99.90
19813;DHT22;10066;48.108;11.448;2023-07-30T05:00:57;18.00;99.90
19813;DHT22;10066;48.108;11.448;2023-07-30T05:03:25;18.00;99.90
19813;DHT22;10066;48.108;11.448;2023-07-30T05:05:53;18.20;99.90
19813;DHT22;10066;48.108;11.448;2023-07-30T05:08:20;18.30;99.90
19813;DHT22;10066;48.108;11.448;2023-07-30T05:10:47;18.40;99.90
19813;DHT22;10066;48.108;11.448;2023-07-30T05:13:14;18.40;99.90
19813;DHT22;10066;48.108;11.448;2023-07-30T05:15:41;18.50;99.90
19813;DHT22;10066;48.108;11.448;2023-07-30T05:18:08;18.60;99.90
19813;DHT22;10066;48.108;11.448;2023-07-30T05:28:01;18.90;99.90
19813;DHT22;10066;48.108;11.448;2023-07-30T05:30:28;18.90;99.90
19813;DHT22;10066;48.108;11.448;2023-07-30T05:32:55;18.90;99.90
19813;DHT22;10066;48.108;11.448;2023-07-30T05:35:22;19.00;99.90
19813;DHT22;10066;48.108;11.448;2023-07-30T05:37:50;19.00;99.90
19813;DHT22;10066;48.108;11.448;2023-07-30T05:40:17;19.00;99.90
19813;DHT22;10066;48.108;11.448;2023-07-30T05:42:44;19.10;99.90
19813;DHT22;10066;48.108;11.448;2023-07-30T05:45:12;19.10;99.90
19813;DHT22;10066;48.108;11.448;2023-07-30T05:47:39;19.30;99.90
19813;DHT22;10066;48.108;11.448;2023-07-30T05:50:07;19.40;99.90
19813;DHT22;10066;48.108;11.448;2023-07-30T05:52:34;19.40;99.90
19813;DHT22;10066;48.108;11.448;2023-07-30T05:55:03;19.50;99.90
19813;DHT22;10066;48.108;11.448;2023-07-30T05:57:30;19.60;99.90
19813;DHT22;10066;48.108;11.448;2023-07-30T05:59:57;19.70;99.90
19813;DHT22;10066;48.108;11.448;2023-07-30T06:02:25;19.70;99.90
19813;DHT22;10066;48.108;11.448;2023-07-30T06:04:52;19.70;99.90
19813;DHT22;10066;48.108;11.448;2023-07-30T06:07:19;19.80;99.90
19813;DHT22;10066;48.108;11.448;2023-07-30T06:09:46;19.90;99.90
19813;DHT22;10066;48.108;11.448;2023-07-30T06:12:14;20.40;99.90
19813;DHT22;10066;48.108;11.448;2023-07-30T06:17:09;23.40;99.90
19813;DHT22;10066;48.108;11.448;2023-07-30T06:19:36;24.70;99.90
19813;DHT22;10066;48.108;11.448;2023-07-30T06:22:04;25.80;99.90
19813;DHT22;10066;48.108;11.448;2023-07-30T06:24:30;27.10;99.90
19813;DHT22;10066;48.108;11.448;2023-07-30T06:26:57;27.50;99.90
19813;DHT22;10066;48.108;11.448;2023-07-30T06:29:25;28.20;99.90
19813;DHT22;10066;48.108;11.448;2023-07-30T06:31:52;28.80;99.90
19813;DHT22;10066;48.108;11.448;2023-07-30T06:34:19;29.40;99.90
19813;DHT22;10066;48.108;11.448;2023-07-30T06:39:13;30.00;99.90
19813;DHT22;10066;48.108;11.448;2023-07-30T06:41:41;29.90;99.90
19813;DHT22;10066;48.108;11.448;2023-07-30T06:44:08;30.20;99.90
19813;DHT22;10066;48.108;11.448;2023-07-30T06:46:37;30.30;99.90
19813;DHT22;10066;48.108;11.448;2023-07-30T06:51:34;30.70;99.90
19813;DHT22;10066;48.108;11.448;2023-07-30T06:54:01;30.60;99.90
19813;DHT22;10066;48.108;11.448;2023-07-30T06:56:29;30.40;99.90
19813;DHT22;10066;48.108;11.448;2023-07-30T06:58:56;29.70;99.90
19813;DHT22;10066;48.108;11.448;2023-07-30T07:01:23;28.70;99.90
19813;DHT22;10066;48.108;11.448;2023-07-30T07:03:52;27.70;99.90
19813;DHT22;10066;48.108;11.448;2023-07-30T07:06:19;26.90;99.90
19813;DHT22;10066;48.108;11.448;2023-07-30T07:08:46;26.10;99.90
19813;DHT22;10066;48.108;11.448;2023-07-30T07:11:13;25.50;99.90
19813;DHT22;10066;48.108;11.448;2023-07-30T07:13:39;25.00;99.90
19813;DHT22;10066;48.108;11.448;2023-07-30T07:16:06;24.50;99.90
19813;DHT22;10066;48.108;11.448;2023-07-30T07:18:33;24.30;99.90
19813;DHT22;10066;48.108;11.448;2023-07-30T07:21:02;24.10;99.90
19813;DHT22;10066;48.108;11.448;2023-07-30T07:23:29;23.90;99.90
19813;DHT22;10066;48.108;11.448;2023-07-30T07:25:56;23.80;99.90
19813;DHT22;10066;48.108;11.448;2023-07-30T07:28:23;23.70;99.90
19813;DHT22;10066;48.108;11.448;2023-07-30T07:30:50;23.70;99.90
19813;DHT22;10066;48.108;11.448;2023-07-30T07:33:17;23.70;99.90
19813;DHT22;10066;48.108;11.448;2023-07-30T07:35:43;23.70;99.90
19813;DHT22;10066;48.108;11.448;2023-07-30T07:38:12;23.60;99.90
19813;DHT22;10066;48.108;11.448;2023-07-30T07:40:39;23.60;99.90
19813;DHT22;10066;48.108;11.448;2023-07-30T07:43:07;23.50;99.90
19813;DHT22;10066;48.108;11.448;2023-07-30T07:45:34;23.50;99.90
19813;DHT22;10066;48.108;11.448;2023-07-30T07:48:04;23.50;99.90
19813;DHT22;10066;48.108;11.448;2023-07-30T07:50:31;23.50;99.90
19813;DHT22;10066;48.108;11.448;2023-07-30T07:52:58;23.50;99.90
19813;DHT22;10066;48.108;11.448;2023-07-30T07:55:27;23.40;99.90
19813;DHT22;10066;48.108;11.448;2023-07-30T07:57:53;23.50;99.90
19813;DHT22;10066;48.108;11.448;2023-07-30T08:00:20;23.60;99.90
19813;DHT22;10066;48.108;11.448;2023-07-30T08:02:47;23.70;99.90
19813;DHT22;10066;48.108;11.448;2023-07-30T08:05:16;23.90;99.90
19813;DHT22;10066;48.108;11.448;2023-07-30T08:07:45;23.90;99.90
19813;DHT22;10066;48.108;11.448;2023-07-30T08:10:13;23.80;99.90
19813;DHT22;10066;48.108;11.448;2023-07-30T08:12:44;23.70;99.90
19813;DHT22;10066;48.108;11.448;2023-07-30T08:15:11;23.80;99.90
19813;DHT22;10066;48.108;11.448;2023-07-30T08:17:38;23.90;99.90
19813;DHT22;10066;48.108;11.448;2023-07-30T08:20:06;24.00;99.90
19813;DHT22;10066;48.108;11.448;2023-07-30T08:22:33;24.20;99.90
19813;DHT22;10066;48.108;11.448;2023-07-30T08:25:01;24.30;99.90
19813;DHT22;10066;48.108;11.448;2023-07-30T08:27:28;24.20;99.90
19813;DHT22;10066;48.108;11.448;2023-07-30T08:29:56;24.10;99.90
19813;DHT22;10066;48.108;11.448;2023-07-30T08:32:23;24.10;99.90
19813;DHT22;10066;48.108;11.448;2023-07-30T08:34:50;24.10;99.90
19813;DHT22;10066;48.108;11.448;2023-07-30T08:37:20;24.20;99.90
19813;DHT22;10066;48.108;11.448;2023-07-30T08:39:47;24.30;99.90
19813;DHT22;10066;48.108;11.448;2023-07-30T08:42:15;24.40;99.90
19813;DHT22;10066;48.108;11.448;2023-07-30T08:44:42;24.40;99.90
19813;DHT22;10066;48.108;11.448;2023-07-30T08:47:10;24.30;99.90
19813;DHT22;10066;48.108;11.448;2023-07-30T08:49:37;24.30;99.90
19813;DHT22;10066;48.108;11.448;2023-07-30T08:52:08;24.20;99.90
19813;DHT22;10066;48.108;11.448;2023-07-30T08:54:36;24.10;99.90
19813;DHT22;10066;48.108;11.448;2023-07-30T08:57:04;24.00;99.90
19813;DHT22;10066;48.108;11.448;2023-07-30T08:59:33;23.90;99.90
19813;DHT22;10066;48.108;11.448;2023-07-30T09:02:04;23.90;99.90
19813;DHT22;10066;48.108;11.448;2023-07-30T09:04:37;24.00;99.90
19813;DHT22;10066;48.108;11.448;2023-07-30T09:07:08;24.10;99.90
19813;DHT22;10066;48.108;11.448;2023-07-30T09:09:36;24.10;99.90
19813;DHT22;10066;48.108;11.448;2023-07-30T09:12:04;24.10;99.90
19813;DHT22;10066;48.108;11.448;2023-07-30T09:14:31;24.10;99.90
19813;DHT22;10066;48.108;11.448;2023-07-30T09:16:58;24.10;99.90
19813;DHT22;10066;48.108;11.448;2023-07-30T09:19:25;24.10;99.90
19813;DHT22;10066;48.108;11.448;2023-07-30T09:21:54;24.10;99.90
19813;DHT22;10066;48.108;11.448;2023-07-30T09:24:21;24.10;99.90
19813;DHT22;10066;48.108;11.448;2023-07-30T09:26:48;24.10;99.90
19813;DHT22;10066;48.108;11.448;2023-07-30T09:29:15;24.10;99.90
19813;DHT22;10066;48.108;11.448;2023-07-30T09:31:46;24.10;99.90
19813;DHT22;10066;48.108;11.448;2023-07-30T09:34:17;24.10;99.90
19813;DHT22;10066;48.108;11.448;2023-07-30T09:36:50;24.00;99.90
19813;DHT22;10066;48.108;11.448;2023-07-30T09:39:21;24.10;99.90
19813;DHT22;10066;48.108;11.448;2023-07-30T09:41:49;24.10;99.90
19813;DHT22;10066;48.108;11.448;2023-07-30T09:44:16;24.10;99.90
19813;DHT22;10066;48.108;11.448;2023-07-30T09:46:47;24.10;99.90
19813;DHT22;10066;48.108;11.448;2023-07-30T09:49:14;24.20;99.90
19813;DHT22;10066;48.108;11.448;2023-07-30T09:51:41;24.30;99.90
19813;DHT22;10066;48.108;11.448;2023-07-30T09:54:10;24.40;99.90
19813;DHT22;10066;48.108;11.448;2023-07-30T09:56:40;24.50;99.90
19813;DHT22;10066;48.108;11.448;2023-07-30T09:59:09;24.60;99.90
19813;DHT22;10066;48.108;11.448;2023-07-30T10:01:38;24.70;99.90
19813;DHT22;10066;48.108;11.448;2023-07-30T10:04:09;24.80;99.90
19813;DHT22;10066;48.108;11.448;2023-07-30T10:06:41;25.00;99.90
19813;DHT22;10066;48.108;11.448;2023-07-30T10:09:10;25.10;99.90
19813;DHT22;10066;48.108;11.448;2023-07-30T10:11:41;25.20;99.90
19813;DHT22;10066;48.108;11.448;2023-07-30T10:14:09;25.20;99.90
19813;DHT22;10066;48.108;11.448;2023-07-30T10:16:36;25.20;99.90
19813;DHT22;10066;48.108;11.448;2023-07-30T10:19:03;25.20;99.90
19813;DHT22;10066;48.108;11.448;2023-07-30T10:21:35;25.10;99.90
19813;DHT22;10066;48.108;11.448;2023-07-30T10:24:05;25.00;99.90
19813;DHT22;10066;48.108;11.448;2023-07-30T10:26:37;24.80;99.90
19813;DHT22;10066;48.108;11.448;2023-07-30T10:29:15;24.60;99.90
19813;DHT22;10066;48.108;11.448;2023-07-30T10:31:45;24.40;99.90
19813;DHT22;10066;48.108;11.448;2023-07-30T10:34:15;24.10;99.90
19813;DHT22;10066;48.108;11.448;2023-07-30T10:36:44;23.90;99.90
19813;DHT22;10066;48.108;11.448;2023-07-30T10:39:12;23.80;99.90
19813;DHT22;10066;48.108;11.448;2023-07-30T10:41:39;23.70;99.90
19813;DHT22;10066;48.108;11.448;2023-07-30T10:44:06;23.80;99.90
19813;DHT22;10066;48.108;11.448;2023-07-30T10:46:35;23.90;99.90
19813;DHT22;10066;48.108;11.448;2023-07-30T10:49:04;24.10;99.90
19813;DHT22;10066;48.108;11.448;2023-07-30T10:51:32;24.20;99.90
19813;DHT22;10066;48.108;11.448;2023-07-30T10:53:59;24.30;99.90
19813;DHT22;10066;48.108;11.448;2023-07-30T10:56:26;24.50;99.90
19813;DHT22;10066;48.108;11.448;2023-07-30T10:58:55;24.60;99.90
19813;DHT22;10066;48.108;11.448;2023-07-30T11:01:24;24.80;99.90
19813;DHT22;10066;48.108;11.448;2023-07-30T11:03:55;24.90;99.90
19813;DHT22;10066;48.108;11.448;2023-07-30T11:06:23;25.10;99.90
19813;DHT22;10066;48.108;11.448;2023-07-30T11:08:52;25.20;99.90
19813;DHT22;10066;48.108;11.448;2023-07-30T11:11:19;25.20;99.90
19813;DHT22;10066;48.108;11.448;2023-07-30T11:13:49;25.30;99.90
19813;DHT22;10066;48.108;11.448;2023-07-30T11:16:16;25.30;99.90
19813;DHT22;10066;48.108;11.448;2023-07-30T11:18:44;25.40;99.90
19813;DHT22;10066;48.108;11.448;2023-07-30T11:21:14;25.40;99.90
19813;DHT22;10066;48.108;11.448;2023-07-30T11:23:43;25.50;99.90
19813;DHT22;10066;48.108;11.448;2023-07-30T11:26:15;25.60;99.90
19813;DHT22;10066;48.108;11.448;2023-07-30T11:28:42;25.50;99.90
19813;DHT22;10066;48.108;11.448;2023-07-30T11:31:11;25.60;99.90
19813;DHT22;10066;48.108;11.448;2023-07-30T11:33:43;25.80;99.90
19813;DHT22;10066;48.108;11.448;2023-07-30T11:36:16;26.00;99.90
19813;DHT22;10066;48.108;11.448;2023-07-30T11:38:43;26.40;99.90
19813;DHT22;10066;48.108;11.448;2023-07-30T11:41:14;26.60;99.90
19813;DHT22;10066;48.108;11.448;2023-07-30T11:43:43;26.80;99.90
19813;DHT22;10066;48.108;11.448;2023-07-30T11:46:13;26.90;99.90
19813;DHT22;10066;48.108;11.448;2023-07-30T11:48:45;26.80;99.90
19813;DHT22;10066;48.108;11.448;2023-07-30T11:51:23;26.80;99.90
19813;DHT22;10066;48.108;11.448;2023-07-30T11:53:57;26.70;98.90
19813;DHT22;10066;48.108;11.448;2023-07-30T11:56:27;26.50;99.90
19813;DHT22;10066;48.108;11.448;2023-07-30T11:58:59;25.80;96.70
19813;DHT22;10066;48.108;11.448;2023-07-30T12:01:28;24.80;99.40
19813;DHT22;10066;48.108;11.448;2023-07-30T12:03:56;24.50;99.90
19813;DHT22;10066;48.108;11.448;2023-07-30T12:06:37;24.30;99.90
19813;DHT22;10066;48.108;11.448;2023-07-30T12:11:45;24.10;99.90
19813;DHT22;10066;48.108;11.448;2023-07-30T12:14:12;23.60;99.90
19813;DHT22;10066;48.108;11.448;2023-07-30T12:16:39;23.60;99.90
19813;DHT22;10066;48.108;11.448;2023-07-30T12:19:06;23.40;99.90
19813;DHT22;10066;48.108;11.448;2023-07-30T12:21:34;23.50;99.90
19813;DHT22;10066;48.108;11.448;2023-07-30T12:24:01;23.50;99.90
19813;DHT22;10066;48.108;11.448;2023-07-30T12:26:28;23.50;99.90
19813;DHT22;10066;48.108;11.448;2023-07-30T12:28:55;23.50;99.90
19813;DHT22;10066;48.108;11.448;2023-07-30T12:31:22;23.40;99.90
19813;DHT22;10066;48.108;11.448;2023-07-30T12:33:49;23.40;99.90
19813;DHT22;10066;48.108;11.448;2023-07-30T12:36:16;23.50;99.90
19813;DHT22;10066;48.108;11.448;2023-07-30T12:38:45;23.60;99.90
19813;DHT22;10066;48.108;11.448;2023-07-30T12:41:11;23.70;99.90
19813;DHT22;10066;48.108;11.448;2023-07-30T12:43:39;23.70;99.90
19813;DHT22;10066;48.108;11.448;2023-07-30T12:46:07;23.60;99.90
19813;DHT22;10066;48.108;11.448;2023-07-30T12:48:34;23.60;99.90
19813;DHT22;10066;48.108;11.448;2023-07-30T12:51:02;23.40;99.90
19813;DHT22;10066;48.108;11.448;2023-07-30T12:53:29;23.30;99.90
19813;DHT22;10066;48.108;11.448;2023-07-30T12:55:57;23.30;99.90
19813;DHT22;10066;48.108;11.448;2023-07-30T12:58:24;23.30;99.90
19813;DHT22;10066;48.108;11.448;2023-07-30T13:00:52;23.30;99.90
19813;DHT22;10066;48.108;11.448;2023-07-30T13:03:19;23.20;99.90
19813;DHT22;10066;48.108;11.448;2023-07-30T13:05:46;23.10;99.90
19813;DHT22;10066;48.108;11.448;2023-07-30T13:08:13;23.10;99.90
19813;DHT22;10066;48.108;11.448;2023-07-30T13:10:43;23.10;99.90
19813;DHT22;10066;48.108;11.448;2023-07-30T13:13:11;23.30;99.90
19813;DHT22;10066;48.108;11.448;2023-07-30T13:15:38;23.40;99.90
19813;DHT22;10066;48.108;11.448;2023-07-30T13:18:05;23.40;99.90
19813;DHT22;10066;48.108;11.448;2023-07-30T13:20:32;23.30;99.90
19813;DHT22;10066;48.108;11.448;2023-07-30T13:22:59;23.30;99.90
19813;DHT22;10066;48.108;11.448;2023-07-30T13:25:26;23.30;99.90
19813;DHT22;10066;48.108;11.448;2023-07-30T13:27:53;23.40;99.90
19813;DHT22;10066;48.108;11.448;2023-07-30T13:30:24;23.40;99.90
19813;DHT22;10066;48.108;11.448;2023-07-30T13:32:51;23.30;99.90
19813;DHT22;10066;48.108;11.448;2023-07-30T13:35:20;23.20;99.90
19813;DHT22;10066;48.108;11.448;2023-07-30T13:37:47;23.10;99.90
19813;DHT22;10066;48.108;11.448;2023-07-30T13:40:14;22.80;99.90
19813;DHT22;10066;48.108;11.448;2023-07-30T13:42:41;22.70;99.90
19813;DHT22;10066;48.108;11.448;2023-07-30T13:45:09;22.40;99.90
19813;DHT22;10066;48.108;11.448;2023-07-30T13:47:40;22.30;99.90
19813;DHT22;10066;48.108;11.448;2023-07-30T13:50:07;22.10;99.90
19813;DHT22;10066;48.108;11.448;2023-07-30T13:52:34;22.00;99.90
19813;DHT22;10066;48.108;11.448;2023-07-30T13:55:03;21.50;99.90
19813;DHT22;10066;48.108;11.448;2023-07-30T13:57:31;19.40;99.90
19813;DHT22;10066;48.108;11.448;2023-07-30T13:59:58;18.50;99.90
19813;DHT22;10066;48.108;11.448;2023-07-30T14:02:25;18.40;99.90
19813;DHT22;10066;48.108;11.448;2023-07-30T14:04:55;18.20;99.90
19813;DHT22;10066;48.108;11.448;2023-07-30T14:07:22;18.20;99.90
19813;DHT22;10066;48.108;11.448;2023-07-30T14:09:52;18.10;99.90
19813;DHT22;10066;48.108;11.448;2023-07-30T14:12:20;18.10;99.90
19813;DHT22;10066;48.108;11.448;2023-07-30T14:14:50;18.10;99.90
19813;DHT22;10066;48.108;11.448;2023-07-30T14:17:23;18.20;99.90
19813;DHT22;10066;48.108;11.448;2023-07-30T14:19:50;18.10;99.90
19813;DHT22;10066;48.108;11.448;2023-07-30T14:22:26;18.00;99.90
19813;DHT22;10066;48.108;11.448;2023-07-30T14:25:02;18.00;99.90
19813;DHT22;10066;48.108;11.448;2023-07-30T14:27:32;18.00;99.90
19813;DHT22;10066;48.108;11.448;2023-07-30T14:29:59;18.00;99.90
19813;DHT22;10066;48.108;11.448;2023-07-30T14:32:27;17.90;99.90
19813;DHT22;10066;48.108;11.448;2023-07-30T14:34:54;17.90;99.90
19813;DHT22;10066;48.108;11.448;2023-07-30T14:37:28;17.80;99.90
19813;DHT22;10066;48.108;11.448;2023-07-30T14:39:55;17.70;99.90
19813;DHT22;10066;48.108;11.448;2023-07-30T14:42:22;17.70;99.90
19813;DHT22;10066;48.108;11.448;2023-07-30T14:44:52;17.70;99.90
19813;DHT22;10066;48.108;11.448;2023-07-30T14:47:30;17.90;99.90
19813;DHT22;10066;48.108;11.448;2023-07-30T14:49:58;18.00;99.90
19813;DHT22;10066;48.108;11.448;2023-07-30T14:52:28;18.20;99.90
19813;DHT22;10066;48.108;11.448;2023-07-30T14:54:55;18.30;99.90
19813;DHT22;10066;48.108;11.448;2023-07-30T14:57:22;18.50;99.90
19813;DHT22;10066;48.108;11.448;2023-07-30T14:59:49;18.70;99.90
19813;DHT22;10066;48.108;11.448;2023-07-30T15:02:16;18.90;99.90
19813;DHT22;10066;48.108;11.448;2023-07-30T15:04:43;18.90;99.90
19813;DHT22;10066;48.108;11.448;2023-07-30T15:07:11;19.00;99.90
19813;DHT22;10066;48.108;11.448;2023-07-30T15:09:40;19.10;99.90
19813;DHT22;10066;48.108;11.448;2023-07-30T15:12:09;19.30;99.90
19813;DHT22;10066;48.108;11.448;2023-07-30T15:14:36;19.40;99.90
19813;DHT22;10066;48.108;11.448;2023-07-30T15:17:03;19.30;99.90
19813;DHT22;10066;48.108;11.448;2023-07-30T15:19:32;19.50;99.90
19813;DHT22;10066;48.108;11.448;2023-07-30T15:22:00;19.60;99.90
19813;DHT22;10066;48.108;11.448;2023-07-30T15:24:28;19.80;99.90
19813;DHT22;10066;48.108;11.448;2023-07-30T15:26:56;19.90;99.90
19813;DHT22;10066;48.108;11.448;2023-07-30T15:29:23;19.90;99.90
19813;DHT22;10066;48.108;11.448;2023-07-30T15:31:53;19.80;99.90
19813;DHT22;10066;48.108;11.448;2023-07-30T15:34:25;19.70;99.90
19813;DHT22;10066;48.108;11.448;2023-07-30T15:36:52;19.80;99.90
19813;DHT22;10066;48.108;11.448;2023-07-30T15:39:19;20.00;99.90